Terminal Aerodrome Forecast
Issued by NWS

Home | Current Version | Previous Version | Text Only | Print | Product List | Glossary Off
Versions: 1 2 3 4 5 6 7 8 9 10 11 12 13 14

000
FTUS43 KGRB 291100
TAFCWA
TAF
KCWA 291120Z 2912/3012 33007KT P6SM BKN100
     FM291600 30008KT P6SM VCSH SCT050 BKN090
      TEMPO 2918/2922 5SM -TSRA BKN040CB
     FM300600 34005KT P6SM SCT010 SCT070=

USA.gov is the U.S. government's official web portal to all federal, state and local government web resources and services.